Time;durP1;ratioP1;P1;durP2;ratioP2;P2;SDS_P1;SDS_P2;PMS_P1;PMS_P2;Temp;Humidity;BMP_temperature;BMP_pressure;BME280_temperature;BME280_humidity;BME280_pressure;Samples;Min_cycle;Max_cycle;Signal;HPM_P1;HPM_P2
2023/08/19 00:01:42;;;;;;;392.83;350.40;;;;;;;;;;4928013;28;20283;-57
2023/08/19 00:04:08;;;;;;;267.70;170.57;;;;;;;;;;4927794;28;20286;-56
2023/08/19 00:06:38;;;;;;;363.10;325.17;;;;;;;;;;4928487;28;20228;-55
2023/08/19 00:09:04;;;;;;;362.20;320.40;;;;;;;;;;4928951;28;20766;-53
2023/08/19 00:11:32;;;;;;;425.17;380.75;;;;;;;;;;4927704;28;20043;-54
2023/08/19 00:13:58;;;;;;;435.60;393.35;;;;;;;;;;4927322;28;20090;-56
2023/08/19 00:16:23;;;;;;;405.63;306.48;;;;;;;;;;4924478;28;20258;-54
2023/08/19 00:18:48;;;;;;;120.45;39.30;;;;;;;;;;4927063;28;20075;-54
2023/08/19 00:21:13;;;;;;;139.40;23.42;;;;;;;;;;4927333;28;20122;-54
2023/08/19 00:23:39;;;;;;;336.67;297.37;;;;;;;;;;4927182;28;20226;-55
2023/08/19 00:26:04;;;;;;;429.47;386.17;;;;;;;;;;4928394;28;20282;-53
2023/08/19 00:28:29;;;;;;;359.70;321.80;;;;;;;;;;4926677;28;20271;-56
2023/08/19 00:30:54;;;;;;;448.57;402.10;;;;;;;;;;4925146;28;20040;-56
2023/08/19 00:33:19;;;;;;;299.37;247.77;;;;;;;;;;4927241;28;20266;-56
2023/08/19 00:35:50;;;;;;;364.60;327.77;;;;;;;;;;4928321;28;20444;-56
2023/08/19 00:38:15;;;;;;;258.70;111.63;;;;;;;;;;4927282;28;20751;-55
2023/08/19 00:40:40;;;;;;;195.97;128.00;;;;;;;;;;4927462;28;20435;-55
2023/08/19 00:43:05;;;;;;;347.90;313.98;;;;;;;;;;4928841;28;20768;-54
2023/08/19 00:45:31;;;;;;;420.17;372.63;;;;;;;;;;4925899;28;20044;-56
2023/08/19 00:47:56;;;;;;;351.30;315.17;;;;;;;;;;4927265;28;20290;-55
2023/08/19 00:50:21;;;;;;;210.63;111.63;;;;;;;;;;4926889;28;20031;-56
2023/08/19 00:52:46;;;;;;;353.98;297.65;;;;;;;;;;4926090;28;20822;-53
2023/08/19 00:55:12;;;;;;;194.35;94.95;;;;;;;;;;4929731;28;20097;-55
2023/08/19 00:57:37;;;;;;;74.38;11.80;;;;;;;;;;4929659;28;20016;-55
2023/08/19 01:00:03;;;;;;;288.25;231.15;;;;;;;;;;4930579;28;20436;-54
2023/08/19 01:02:28;;;;;;;72.50;16.02;;;;;;;;;;4929763;28;20154;-55
2023/08/19 01:04:54;;;;;;;319.10;286.23;;;;;;;;;;4932181;28;20028;-56
2023/08/19 01:07:25;;;;;;;372.52;265.67;;;;;;;;;;4929610;28;20046;-55
2023/08/19 01:10:09;;;;;;;235.25;204.18;;;;;;;;;;4931670;28;20073;-56
2023/08/19 01:12:41;;;;;;;216.52;148.73;;;;;;;;;;4929911;28;20663;-56
2023/08/19 01:15:07;;;;;;;195.48;119.68;;;;;;;;;;4932208;28;20026;-54
2023/08/19 01:17:33;;;;;;;96.80;18.63;;;;;;;;;;4932000;28;20687;-54
2023/08/19 01:19:58;;;;;;;76.05;20.83;;;;;;;;;;4934048;28;20066;-54
2023/08/19 01:22:28;;;;;;;273.17;226.23;;;;;;;;;;4929301;28;20071;-55
2023/08/19 01:24:53;;;;;;;191.20;126.53;;;;;;;;;;4933231;28;20107;-54
2023/08/19 01:27:23;;;;;;;316.17;247.20;;;;;;;;;;4931618;28;20063;-55
2023/08/19 01:29:48;;;;;;;246.25;219.80;;;;;;;;;;4933088;28;20057;-56
2023/08/19 01:32:14;;;;;;;356.88;253.93;;;;;;;;;;4930097;28;20780;-54
2023/08/19 01:34:39;;;;;;;276.98;248.20;;;;;;;;;;4931097;28;20024;-55
2023/08/19 01:37:07;;;;;;;69.10;14.32;;;;;;;;;;4932199;28;20516;-54
2023/08/19 01:39:32;;;;;;;144.25;104.18;;;;;;;;;;4931146;28;20023;-55
2023/08/19 01:41:58;;;;;;;183.68;158.40;;;;;;;;;;4932891;28;20205;-56
2023/08/19 01:44:23;;;;;;;196.23;94.55;;;;;;;;;;4930823;28;20019;-54
2023/08/19 01:46:49;;;;;;;271.45;237.57;;;;;;;;;;4931633;28;20193;-54
2023/08/19 01:49:14;;;;;;;116.53;42.88;;;;;;;;;;4927911;28;20138;-56
2023/08/19 01:51:39;;;;;;;169.27;79.70;;;;;;;;;;4929292;28;20036;-53
2023/08/19 01:54:05;;;;;;;83.38;14.02;;;;;;;;;;4931222;28;20347;-56
2023/08/19 01:56:30;;;;;;;130.35;80.78;;;;;;;;;;4930282;28;20044;-54
2023/08/19 01:58:56;;;;;;;136.03;86.73;;;;;;;;;;4929972;28;20035;-54
2023/08/19 02:01:21;;;;;;;127.50;37.75;;;;;;;;;;4929222;28;20255;-54
2023/08/19 02:03:47;;;;;;;72.93;26.13;;;;;;;;;;4930408;28;20332;-54
2023/08/19 02:06:12;;;;;;;100.28;31.95;;;;;;;;;;4928554;28;20311;-55
2023/08/19 02:08:37;;;;;;;125.65;44.60;;;;;;;;;;4930690;28;20023;-56
2023/08/19 02:11:02;;;;;;;64.47;9.83;;;;;;;;;;4931332;28;20433;-53
2023/08/19 02:13:28;;;;;;;136.13;38.53;;;;;;;;;;4930540;28;20405;-53
2023/08/19 02:15:53;;;;;;;171.30;131.95;;;;;;;;;;4931559;28;20311;-56
2023/08/19 02:18:18;;;;;;;156.57;56.70;;;;;;;;;;4930373;28;20042;-53
2023/08/19 02:20:47;;;;;;;88.85;42.17;;;;;;;;;;4931800;28;20639;-54
2023/08/19 02:23:12;;;;;;;102.70;29.80;;;;;;;;;;4927593;28;20027;-54
2023/08/19 02:25:37;;;;;;;63.58;10.50;;;;;;;;;;4930577;28;20039;-55
2023/08/19 02:28:03;;;;;;;111.83;59.73;;;;;;;;;;4933884;28;20055;-53
2023/08/19 02:30:30;;;;;;;138.98;20.27;;;;;;;;;;4925994;28;20283;-56
2023/08/19 02:32:56;;;;;;;62.70;14.57;;;;;;;;;;4931746;28;20051;-55
2023/08/19 02:35:21;;;;;;;124.10;13.87;;;;;;;;;;4928100;28;20621;-55
2023/08/19 02:37:46;;;;;;;75.68;10.70;;;;;;;;;;4932680;28;20754;-55
2023/08/19 02:40:12;;;;;;;64.20;9.60;;;;;;;;;;4929627;28;20027;-54
2023/08/19 02:42:37;;;;;;;66.95;9.63;;;;;;;;;;4929505;28;20273;-55
2023/08/19 02:45:02;;;;;;;89.85;11.65;;;;;;;;;;4928698;28;20028;-54
2023/08/19 02:47:28;;;;;;;105.35;12.38;;;;;;;;;;4928671;28;20035;-54
2023/08/19 02:49:53;;;;;;;75.80;22.23;;;;;;;;;;4929561;28;20027;-54
2023/08/19 02:52:18;;;;;;;139.23;14.43;;;;;;;;;;4927822;28;20256;-54
2023/08/19 02:54:44;;;;;;;92.47;46.95;;;;;;;;;;4930754;28;20698;-54
2023/08/19 02:57:09;;;;;;;64.15;10.25;;;;;;;;;;4929261;28;20086;-56
2023/08/19 02:59:34;;;;;;;84.10;13.30;;;;;;;;;;4930027;28;20450;-54
2023/08/19 03:01:59;;;;;;;60.80;9.93;;;;;;;;;;4930501;28;20283;-55
2023/08/19 03:04:25;;;;;;;127.90;14.33;;;;;;;;;;4931412;28;20282;-55
2023/08/19 03:06:50;;;;;;;65.22;10.13;;;;;;;;;;4931495;28;21075;-55
2023/08/19 03:09:15;;;;;;;69.70;10.77;;;;;;;;;;4928779;28;20035;-53
2023/08/19 03:11:41;;;;;;;72.22;10.98;;;;;;;;;;4931270;28;20043;-55
2023/08/19 03:14:07;;;;;;;88.45;15.75;;;;;;;;;;4931761;28;20031;-56
2023/08/19 03:16:32;;;;;;;160.43;49.22;;;;;;;;;;4929655;28;20039;-56
2023/08/19 03:18:57;;;;;;;54.33;9.57;;;;;;;;;;4932886;28;20027;-55
2023/08/19 03:21:22;;;;;;;139.90;18.57;;;;;;;;;;4930181;28;20126;-54
2023/08/19 03:23:48;;;;;;;65.70;11.03;;;;;;;;;;4932222;28;20552;-56
2023/08/19 03:26:13;;;;;;;67.07;12.82;;;;;;;;;;4932322;28;20846;-54
2023/08/19 03:28:38;;;;;;;106.15;13.45;;;;;;;;;;4927896;28;20042;-54
2023/08/19 03:31:07;;;;;;;58.75;9.90;;;;;;;;;;4932085;28;20051;-56
2023/08/19 03:33:33;;;;;;;109.00;12.93;;;;;;;;;;4928904;28;20023;-56
2023/08/19 03:35:59;;;;;;;88.88;11.32;;;;;;;;;;4927832;28;20078;-54
2023/08/19 03:38:24;;;;;;;119.13;14.15;;;;;;;;;;4928622;28;20034;-53
2023/08/19 03:40:49;;;;;;;55.50;9.33;;;;;;;;;;4927847;28;20053;-54
2023/08/19 03:43:15;;;;;;;94.67;11.67;;;;;;;;;;4929227;28;20048;-56
2023/08/19 03:45:40;;;;;;;69.20;10.27;;;;;;;;;;4928157;28;20310;-56
2023/08/19 03:48:05;;;;;;;67.73;9.77;;;;;;;;;;4929340;28;20027;-56
2023/08/19 03:50:30;;;;;;;140.00;15.90;;;;;;;;;;4926245;28;20276;-54
2023/08/19 03:52:56;;;;;;;58.03;10.00;;;;;;;;;;4931282;28;20024;-56
2023/08/19 03:55:21;;;;;;;103.90;12.88;;;;;;;;;;4927977;28;20035;-54
2023/08/19 03:57:46;;;;;;;86.53;10.43;;;;;;;;;;4927776;28;20042;-54
2023/08/19 04:00:12;;;;;;;71.30;10.27;;;;;;;;;;4929402;28;20078;-55
2023/08/19 04:02:37;;;;;;;70.72;9.98;;;;;;;;;;4927055;28;21003;-54
2023/08/19 04:05:03;;;;;;;91.80;10.83;;;;;;;;;;4929380;28;20425;-54
2023/08/19 04:07:28;;;;;;;127.40;13.95;;;;;;;;;;4928835;28;20090;-55
2023/08/19 04:09:55;;;;;;;81.47;11.85;;;;;;;;;;4928765;28;20032;-55
2023/08/19 04:12:20;;;;;;;73.90;10.45;;;;;;;;;;4925957;28;20047;-56
2023/08/19 04:14:46;;;;;;;45.58;8.68;;;;;;;;;;4929122;28;20023;-53
2023/08/19 04:17:11;;;;;;;82.88;11.13;;;;;;;;;;4926588;28;20050;-57
2023/08/19 04:19:37;;;;;;;114.53;13.00;;;;;;;;;;4927878;28;20619;-54
2023/08/19 04:22:03;;;;;;;75.18;10.20;;;;;;;;;;4926591;28;20130;-55
2023/08/19 04:24:28;;;;;;;126.90;12.73;;;;;;;;;;4926646;28;20031;-54
2023/08/19 04:26:53;;;;;;;62.13;9.63;;;;;;;;;;4927880;28;20278;-54
2023/08/19 04:29:18;;;;;;;69.13;9.80;;;;;;;;;;4931692;28;20024;-56
2023/08/19 04:31:43;;;;;;;77.70;10.75;;;;;;;;;;4930467;28;20398;-56
2023/08/19 04:34:09;;;;;;;60.72;9.25;;;;;;;;;;4933618;28;20664;-57
2023/08/19 04:36:34;;;;;;;134.40;16.33;;;;;;;;;;4931461;28;20692;-55
2023/08/19 04:38:59;;;;;;;78.20;10.07;;;;;;;;;;4933191;28;20633;-55
2023/08/19 04:41:25;;;;;;;133.63;13.63;;;;;;;;;;4931893;28;20341;-56
2023/08/19 04:43:50;;;;;;;61.72;12.07;;;;;;;;;;4933650;28;20366;-55
2023/08/19 04:46:16;;;;;;;86.53;10.98;;;;;;;;;;4933417;28;20067;-56
2023/08/19 04:48:41;;;;;;;64.80;9.60;;;;;;;;;;4933387;28;20038;-57
2023/08/19 04:51:07;;;;;;;71.27;8.90;;;;;;;;;;4932294;28;20301;-53
2023/08/19 04:53:32;;;;;;;120.10;12.48;;;;;;;;;;4932245;28;20278;-53
2023/08/19 04:56:04;;;;;;;64.35;10.95;;;;;;;;;;4931795;28;21045;-54
2023/08/19 04:58:29;;;;;;;108.68;26.90;;;;;;;;;;4937807;28;20396;-54
2023/08/19 05:00:55;;;;;;;102.75;16.55;;;;;;;;;;4931460;28;20845;-54
2023/08/19 05:03:20;;;;;;;74.72;19.52;;;;;;;;;;4932562;28;20807;-54
2023/08/19 05:05:45;;;;;;;46.35;7.95;;;;;;;;;;4931711;28;20048;-54
2023/08/19 05:08:10;;;;;;;102.03;11.52;;;;;;;;;;4932380;28;20031;-54
2023/08/19 05:10:36;;;;;;;144.23;32.40;;;;;;;;;;4931274;28;20039;-53
2023/08/19 05:13:01;;;;;;;80.22;21.25;;;;;;;;;;4932364;28;20777;-54
2023/08/19 05:15:27;;;;;;;363.97;251.90;;;;;;;;;;4930426;28;20043;-53
2023/08/19 05:17:52;;;;;;;250.25;223.60;;;;;;;;;;4934004;28;20320;-55
2023/08/19 05:20:17;;;;;;;182.07;140.10;;;;;;;;;;4931631;28;20025;-54
2023/08/19 05:22:42;;;;;;;100.00;24.93;;;;;;;;;;4930565;28;20034;-53
2023/08/19 05:25:08;;;;;;;294.57;265.30;;;;;;;;;;4931333;28;20035;-53
2023/08/19 05:27:33;;;;;;;301.95;230.00;;;;;;;;;;4931645;28;20278;-53
2023/08/19 05:29:59;;;;;;;264.20;181.35;;;;;;;;;;4932165;28;20039;-55
2023/08/19 05:32:24;;;;;;;342.73;297.92;;;;;;;;;;4929983;28;20073;-54
2023/08/19 05:34:49;;;;;;;268.77;241.40;;;;;;;;;;4931002;28;20417;-54
2023/08/19 05:37:14;;;;;;;116.72;53.40;;;;;;;;;;4930157;28;20279;-55
2023/08/19 05:39:40;;;;;;;343.77;302.43;;;;;;;;;;4917005;28;20127;-53
2023/08/19 05:42:06;;;;;;;288.93;230.00;;;;;;;;;;4930427;28;20847;-54
2023/08/19 05:44:31;;;;;;;356.42;260.95;;;;;;;;;;4929070;28;20302;-58
2023/08/19 05:46:56;;;;;;;249.33;223.20;;;;;;;;;;4931344;28;20151;-56
2023/08/19 05:49:21;;;;;;;236.77;210.73;;;;;;;;;;4931145;28;20266;-56
2023/08/19 05:51:47;;;;;;;290.77;259.43;;;;;;;;;;4927825;28;20941;-54
2023/08/19 05:54:12;;;;;;;250.70;224.20;;;;;;;;;;4930964;28;20504;-55
2023/08/19 05:56:37;;;;;;;326.27;288.58;;;;;;;;;;4930644;28;20302;-55
2023/08/19 05:59:02;;;;;;;258.17;230.20;;;;;;;;;;4932706;28;20031;-56
2023/08/19 06:01:28;;;;;;;288.63;250.77;;;;;;;;;;4931676;28;20355;-55
2023/08/19 06:03:53;;;;;;;483.87;437.83;;;;;;;;;;4931589;28;20032;-56
2023/08/19 06:06:18;;;;;;;352.13;316.73;;;;;;;;;;4931066;28;20044;-55
2023/08/19 06:08:44;;;;;;;248.70;223.15;;;;;;;;;;4929206;28;20038;-54
2023/08/19 06:11:09;;;;;;;329.65;271.73;;;;;;;;;;4932401;28;20314;-54
2023/08/19 06:13:34;;;;;;;306.77;269.50;;;;;;;;;;4928852;28;20034;-57
2023/08/19 06:16:00;;;;;;;351.17;318.30;;;;;;;;;;4930997;28;20284;-54
2023/08/19 06:18:25;;;;;;;305.02;274.60;;;;;;;;;;4931024;28;20046;-54
2023/08/19 06:20:51;;;;;;;202.60;171.02;;;;;;;;;;4929032;28;20089;-55
2023/08/19 06:23:20;;;;;;;329.40;297.30;;;;;;;;;;4929577;28;20027;-55
2023/08/19 06:25:49;;;;;;;345.27;305.48;;;;;;;;;;4931393;28;20043;-57
2023/08/19 06:28:14;;;;;;;318.73;286.67;;;;;;;;;;4931860;28;20146;-54
2023/08/19 06:30:40;;;;;;;337.75;299.17;;;;;;;;;;4927502;28;20050;-56
2023/08/19 06:33:06;;;;;;;152.23;121.32;;;;;;;;;;4931750;28;20410;-56
2023/08/19 06:35:31;;;;;;;352.20;314.92;;;;;;;;;;4930326;28;20269;-56
2023/08/19 06:37:59;;;;;;;222.70;196.88;;;;;;;;;;4932505;28;20102;-57
2023/08/19 06:40:26;;;;;;;257.38;230.35;;;;;;;;;;4932884;28;20059;-57
2023/08/19 06:42:52;;;;;;;369.92;334.02;;;;;;;;;;4929196;28;20086;-58
2023/08/19 06:45:17;;;;;;;364.85;328.17;;;;;;;;;;4932179;28;20466;-55
2023/08/19 06:47:43;;;;;;;386.13;346.42;;;;;;;;;;4930159;28;20016;-55
2023/08/19 06:50:09;;;;;;;435.40;392.88;;;;;;;;;;4929904;28;20110;-56
2023/08/19 06:52:34;;;;;;;481.80;432.15;;;;;;;;;;4929674;28;20026;-56
2023/08/19 06:54:59;;;;;;;425.15;380.65;;;;;;;;;;4933246;28;20111;-55
2023/08/19 06:57:29;;;;;;;400.03;361.17;;;;;;;;;;4932008;28;20038;-55
2023/08/19 07:00:06;;;;;;;481.98;439.10;;;;;;;;;;4930563;28;20286;-56
2023/08/19 07:02:33;;;;;;;565.25;510.60;;;;;;;;;;4927710;28;20505;-56
2023/08/19 07:04:59;;;;;;;579.35;519.60;;;;;;;;;;4930205;28;20055;-55
2023/08/19 07:07:25;;;;;;;649.78;589.53;;;;;;;;;;4932210;28;20040;-55
2023/08/19 07:09:52;;;;;;;513.78;465.48;;;;;;;;;;4927562;28;20028;-54
2023/08/19 07:12:17;;;;;;;497.48;451.08;;;;;;;;;;4929210;28;20050;-55
2023/08/19 07:14:42;;;;;;;488.45;439.67;;;;;;;;;;4928757;28;20465;-55
2023/08/19 07:17:09;;;;;;;489.83;444.67;;;;;;;;;;4930530;28;20064;-55
2023/08/19 07:19:35;;;;;;;519.65;470.30;;;;;;;;;;4928726;28;20334;-56
2023/08/19 07:22:01;;;;;;;624.47;561.08;;;;;;;;;;4928310;28;20376;-56
2023/08/19 07:24:28;;;;;;;544.53;492.63;;;;;;;;;;4929732;28;20039;-55
2023/08/19 07:26:53;;;;;;;450.23;409.98;;;;;;;;;;4927614;28;20039;-55
2023/08/19 07:29:18;;;;;;;471.42;428.13;;;;;;;;;;4930968;28;20105;-57
2023/08/19 07:31:46;;;;;;;494.65;445.15;;;;;;;;;;4926424;28;20421;-59
2023/08/19 07:34:11;;;;;;;461.60;417.50;;;;;;;;;;4929537;28;20031;-55
2023/08/19 07:36:36;;;;;;;552.53;499.67;;;;;;;;;;4928402;28;20101;-55
2023/08/19 07:39:03;;;;;;;401.83;362.10;;;;;;;;;;4929033;28;20114;-56
2023/08/19 07:41:29;;;;;;;633.70;530.00;;;;;;;;;;4929739;28;20058;-57
2023/08/19 07:43:54;;;;;;;539.63;481.83;;;;;;;;;;4928618;28;20385;-56
2023/08/19 07:46:20;;;;;;;453.98;412.02;;;;;;;;;;4929571;28;20847;-57
2023/08/19 07:48:45;;;;;;;446.17;403.33;;;;;;;;;;4929598;28;20035;-59
2023/08/19 07:51:11;;;;;;;534.37;480.30;;;;;;;;;;4929055;28;20398;-57
2023/08/19 07:53:36;;;;;;;497.92;448.33;;;;;;;;;;4927507;28;20035;-57
2023/08/19 07:56:01;;;;;;;605.80;541.00;;;;;;;;;;4928540;28;20094;-56
2023/08/19 07:58:26;;;;;;;773.70;432.07;;;;;;;;;;4929497;28;20016;-58
2023/08/19 08:00:52;;;;;;;407.77;370.50;;;;;;;;;;4927561;28;20783;-56
2023/08/19 08:03:17;;;;;;;460.75;418.20;;;;;;;;;;4933484;28;20054;-56
2023/08/19 08:05:43;;;;;;;462.52;416.95;;;;;;;;;;4933107;28;20038;-58
2023/08/19 08:08:08;;;;;;;423.60;383.37;;;;;;;;;;4933030;28;20410;-56
2023/08/19 08:10:34;;;;;;;563.00;506.52;;;;;;;;;;4930707;28;20044;-56
2023/08/19 08:12:59;;;;;;;496.75;446.30;;;;;;;;;;4933056;28;20945;-59
2023/08/19 08:15:24;;;;;;;593.33;463.63;;;;;;;;;;4932090;28;20102;-57
2023/08/19 08:17:49;;;;;;;508.33;453.93;;;;;;;;;;4933265;28;20032;-59
2023/08/19 08:20:16;;;;;;;483.10;289.03;;;;;;;;;;4932518;28;20114;-55
2023/08/19 08:22:41;;;;;;;557.08;315.27;;;;;;;;;;4933740;28;20545;-57
2023/08/19 08:25:09;;;;;;;626.67;507.13;;;;;;;;;;4934128;28;20035;-57
2023/08/19 08:27:34;;;;;;;541.45;490.00;;;;;;;;;;4932767;28;20027;-57
2023/08/19 08:29:59;;;;;;;852.23;578.93;;;;;;;;;;4932299;28;20027;-55
2023/08/19 08:32:25;;;;;;;877.63;660.67;;;;;;;;;;4933579;28;20047;-56
2023/08/19 08:34:50;;;;;;;684.80;396.53;;;;;;;;;;4932322;28;20142;-57
2023/08/19 08:37:15;;;;;;;505.07;455.17;;;;;;;;;;4933303;28;20067;-58
2023/08/19 08:39:40;;;;;;;595.87;518.27;;;;;;;;;;4931341;28;20035;-56
2023/08/19 08:42:08;;;;;;;422.87;376.53;;;;;;;;;;4933333;28;20785;-58
2023/08/19 08:44:36;;;;;;;649.03;527.25;;;;;;;;;;4932872;28;20042;-58
2023/08/19 08:47:01;;;;;;;740.47;589.92;;;;;;;;;;4932688;28;20035;-59
2023/08/19 08:49:27;;;;;;;471.05;427.63;;;;;;;;;;4934018;28;20090;-56
2023/08/19 08:51:53;;;;;;;860.95;644.58;;;;;;;;;;4930991;28;20044;-59
2023/08/19 08:54:19;;;;;;;574.80;481.95;;;;;;;;;;4934036;28;20635;-59
2023/08/19 08:56:44;;;;;;;692.85;546.13;;;;;;;;;;4931883;28;20031;-55
2023/08/19 08:59:10;;;;;;;574.83;494.93;;;;;;;;;;4932253;28;20042;-55
2023/08/19 09:01:36;;;;;;;497.48;444.13;;;;;;;;;;4933179;28;20063;-56
2023/08/19 09:04:04;;;;;;;661.47;593.08;;;;;;;;;;4931800;28;20066;-55
2023/08/19 09:06:30;;;;;;;598.95;534.72;;;;;;;;;;4933999;28;20517;-55
2023/08/19 09:09:02;;;;;;;834.88;531.20;;;;;;;;;;4931345;28;20062;-56
2023/08/19 09:11:28;;;;;;;775.97;647.40;;;;;;;;;;4931984;28;20056;-56
2023/08/19 09:14:05;;;;;;;924.03;617.38;;;;;;;;;;4931417;28;20035;-56
2023/08/19 09:16:30;;;;;;;746.50;433.55;;;;;;;;;;4930753;28;20046;-55
2023/08/19 09:18:55;;;;;;;586.33;517.47;;;;;;;;;;4932783;28;20027;-56
2023/08/19 09:21:21;;;;;;;630.90;509.93;;;;;;;;;;4931866;28;20817;-58
2023/08/19 09:23:46;;;;;;;455.67;410.30;;;;;;;;;;4930899;28;20444;-55
2023/08/19 09:26:11;;;;;;;780.17;556.63;;;;;;;;;;4931240;28;20090;-54
2023/08/19 09:28:37;;;;;;;638.20;466.07;;;;;;;;;;4929152;28;20114;-57
2023/08/19 09:31:20;;;;;;;702.78;598.80;;;;;;;;;;4929812;28;20043;-57
2023/08/19 09:33:47;;;;;;;784.95;540.28;;;;;;;;;;4928763;28;20027;-54
2023/08/19 09:36:12;;;;;;;425.80;382.55;;;;;;;;;;4930951;28;20047;-55
2023/08/19 09:38:37;;;;;;;703.87;535.13;;;;;;;;;;4929215;28;20027;-56
2023/08/19 09:41:03;;;;;;;738.10;586.90;;;;;;;;;;4931300;28;20290;-56
2023/08/19 09:43:29;;;;;;;498.27;443.27;;;;;;;;;;4933673;28;20044;-54
2023/08/19 09:45:55;;;;;;;603.50;261.17;;;;;;;;;;4930476;28;20048;-56
2023/08/19 09:48:22;;;;;;;586.55;387.52;;;;;;;;;;4931657;28;20504;-56
2023/08/19 09:50:47;;;;;;;620.75;486.65;;;;;;;;;;4928816;28;20047;-57
2023/08/19 09:53:14;;;;;;;641.40;576.63;;;;;;;;;;4930362;28;20034;-57
2023/08/19 09:55:43;;;;;;;1014.03;532.90;;;;;;;;;;4932633;28;20039;-58
2023/08/19 09:58:09;;;;;;;591.53;501.25;;;;;;;;;;4931097;28;20611;-57
2023/08/19 10:00:34;;;;;;;576.50;517.00;;;;;;;;;;4931483;28;20516;-59
2023/08/19 10:03:00;;;;;;;571.67;513.87;;;;;;;;;;4928665;28;20032;-57
2023/08/19 10:05:26;;;;;;;766.90;587.13;;;;;;;;;;4930720;28;20048;-56
2023/08/19 10:07:54;;;;;;;467.40;419.67;;;;;;;;;;4930360;28;20031;-58
2023/08/19 10:10:20;;;;;;;595.25;535.08;;;;;;;;;;4931873;28;20027;-59
2023/08/19 10:12:47;;;;;;;617.95;545.55;;;;;;;;;;4929753;28;20319;-57
2023/08/19 10:15:13;;;;;;;649.63;581.50;;;;;;;;;;4932434;28;20027;-58
2023/08/19 10:17:40;;;;;;;490.30;439.63;;;;;;;;;;4930389;28;20030;-56
2023/08/19 10:20:10;;;;;;;582.85;512.40;;;;;;;;;;4932491;28;20027;-55
2023/08/19 10:22:36;;;;;;;568.35;503.08;;;;;;;;;;4930710;28;20413;-55
2023/08/19 10:25:04;;;;;;;921.60;553.40;;;;;;;;;;4929684;28;20032;-58
2023/08/19 10:27:29;;;;;;;812.65;616.38;;;;;;;;;;4930034;28;20513;-57
2023/08/19 10:29:57;;;;;;;834.30;448.63;;;;;;;;;;4931384;28;20094;-57
2023/08/19 10:32:32;;;;;;;593.58;528.67;;;;;;;;;;4929729;28;20311;-55
2023/08/19 10:35:09;;;;;;;572.78;473.73;;;;;;;;;;4930993;28;20111;-57
2023/08/19 10:37:47;;;;;;;645.97;402.60;;;;;;;;;;4929101;28;20129;-59
2023/08/19 10:40:13;;;;;;;590.88;334.25;;;;;;;;;;4936482;28;20299;-58
2023/08/19 10:42:39;;;;;;;574.05;497.85;;;;;;;;;;4931409;28;20438;-56
2023/08/19 10:45:17;;;;;;;602.42;322.23;;;;;;;;;;4928572;28;20034;-59
2023/08/19 10:47:42;;;;;;;652.30;535.03;;;;;;;;;;4928164;28;20031;-56
2023/08/19 10:50:08;;;;;;;535.23;480.73;;;;;;;;;;4936219;28;20042;-59
2023/08/19 10:52:33;;;;;;;695.20;473.98;;;;;;;;;;4923639;28;20071;-57
2023/08/19 10:55:00;;;;;;;644.20;554.50;;;;;;;;;;4924715;28;20023;-57
2023/08/19 10:57:26;;;;;;;561.15;498.05;;;;;;;;;;4927880;28;20035;-57
2023/08/19 10:59:57;;;;;;;661.42;555.58;;;;;;;;;;4925301;28;20035;-56
2023/08/19 11:02:24;;;;;;;529.50;472.63;;;;;;;;;;4927447;28;20043;-58
2023/08/19 11:04:50;;;;;;;692.67;612.83;;;;;;;;;;4927825;28;20081;-59
2023/08/19 11:07:16;;;;;;;469.92;418.10;;;;;;;;;;4926595;28;20035;-63
2023/08/19 11:09:42;;;;;;;676.60;570.88;;;;;;;;;;4927601;28;20027;-57
2023/08/19 11:12:08;;;;;;;767.17;539.92;;;;;;;;;;4924745;28;20047;-59
2023/08/19 11:14:33;;;;;;;590.67;526.47;;;;;;;;;;4929027;28;20671;-57
2023/08/19 11:16:58;;;;;;;507.13;288.08;;;;;;;;;;4926883;28;20035;-58
2023/08/19 11:19:24;;;;;;;710.33;570.53;;;;;;;;;;4929951;28;20030;-58
2023/08/19 11:21:50;;;;;;;581.13;480.75;;;;;;;;;;4923664;28;20586;-60
2023/08/19 11:24:15;;;;;;;807.40;503.13;;;;;;;;;;4928089;28;20082;-61
2023/08/19 11:26:45;;;;;;;439.90;396.55;;;;;;;;;;4927594;28;20039;-59
2023/08/19 11:29:10;;;;;;;536.15;480.88;;;;;;;;;;4926955;28;20081;-59
2023/08/19 11:31:39;;;;;;;600.45;538.10;;;;;;;;;;4928237;28;20035;-61
2023/08/19 11:34:08;;;;;;;487.55;437.60;;;;;;;;;;4929476;28;20050;-59
2023/08/19 11:36:34;;;;;;;680.30;525.45;;;;;;;;;;4927322;28;20774;-58
2023/08/19 11:38:59;;;;;;;511.88;422.40;;;;;;;;;;4927110;28;20429;-59
2023/08/19 11:41:25;;;;;;;997.30;551.67;;;;;;;;;;4926712;28;20103;-61
2023/08/19 11:43:50;;;;;;;707.75;586.90;;;;;;;;;;4926901;28;20287;-59
2023/08/19 11:46:16;;;;;;;587.00;526.75;;;;;;;;;;4928397;28;20284;-60
2023/08/19 11:48:41;;;;;;;795.67;601.38;;;;;;;;;;4926747;28;20559;-57
2023/08/19 11:51:13;;;;;;;506.00;452.58;;;;;;;;;;4925431;28;20043;-61
2023/08/19 11:53:40;;;;;;;500.15;451.50;;;;;;;;;;4926941;28;20508;-58
2023/08/19 11:56:06;;;;;;;546.10;376.73;;;;;;;;;;4926217;28;20035;-58
2023/08/19 11:58:38;;;;;;;907.58;603.08;;;;;;;;;;4927716;28;20028;-59
2023/08/19 12:01:03;;;;;;;878.50;635.53;;;;;;;;;;4927092;28;20038;-60
2023/08/19 12:03:29;;;;;;;585.25;526.20;;;;;;;;;;4928047;28;20039;-58
2023/08/19 12:05:54;;;;;;;513.27;459.03;;;;;;;;;;4926707;28;20036;-60
2023/08/19 12:08:32;;;;;;;534.90;483.63;;;;;;;;;;4927331;28;20411;-59
2023/08/19 12:10:58;;;;;;;564.08;490.15;;;;;;;;;;4927478;28;20287;-58
2023/08/19 12:13:23;;;;;;;717.42;531.92;;;;;;;;;;4929672;28;20143;-61
2023/08/19 12:15:49;;;;;;;559.97;499.73;;;;;;;;;;4927813;28;20039;-60
2023/08/19 12:18:18;;;;;;;822.45;586.95;;;;;;;;;;4927454;28;20130;-55
2023/08/19 12:20:44;;;;;;;774.80;417.45;;;;;;;;;;4927803;28;20036;-59
2023/08/19 12:23:09;;;;;;;606.72;540.13;;;;;;;;;;4927348;28;20019;-58
2023/08/19 12:25:39;;;;;;;400.00;338.83;;;;;;;;;;4926459;28;20322;-58
2023/08/19 12:28:04;;;;;;;513.97;461.15;;;;;;;;;;4928016;28;20035;-58
2023/08/19 12:30:29;;;;;;;526.70;470.10;;;;;;;;;;4925556;28;20023;-58
2023/08/19 12:32:55;;;;;;;1095.57;656.07;;;;;;;;;;4925367;28;20028;-57
2023/08/19 12:35:21;;;;;;;505.20;436.50;;;;;;;;;;4926601;28;20321;-56
2023/08/19 12:37:47;;;;;;;564.58;506.65;;;;;;;;;;4928341;28;20421;-57
2023/08/19 12:40:12;;;;;;;658.40;584.15;;;;;;;;;;4912256;28;20031;-56
2023/08/19 12:42:37;;;;;;;458.80;412.80;;;;;;;;;;4926988;28;20070;-54
2023/08/19 12:45:03;;;;;;;559.57;501.30;;;;;;;;;;4925357;28;20062;-55
2023/08/19 12:47:28;;;;;;;639.22;396.58;;;;;;;;;;4927536;28;20426;-58
2023/08/19 12:49:53;;;;;;;623.30;547.23;;;;;;;;;;4928457;28;20028;-59
2023/08/19 12:52:19;;;;;;;540.70;486.05;;;;;;;;;;4929418;28;20103;-58
2023/08/19 12:54:44;;;;;;;806.00;559.97;;;;;;;;;;4932070;28;20126;-58
2023/08/19 12:57:09;;;;;;;406.23;363.43;;;;;;;;;;4929477;28;20608;-55
2023/08/19 12:59:35;;;;;;;467.90;421.43;;;;;;;;;;4931204;28;20279;-58
2023/08/19 13:02:01;;;;;;;484.27;410.63;;;;;;;;;;4929254;28;20288;-56
2023/08/19 13:04:26;;;;;;;417.30;363.55;;;;;;;;;;4933013;28;20287;-57
2023/08/19 13:06:51;;;;;;;516.47;465.27;;;;;;;;;;4927080;28;20038;-57
2023/08/19 13:09:20;;;;;;;838.37;573.73;;;;;;;;;;4929684;28;20042;-55
2023/08/19 13:11:45;;;;;;;572.33;512.90;;;;;;;;;;4929465;28;20050;-57
2023/08/19 13:14:10;;;;;;;881.33;553.93;;;;;;;;;;4929586;28;20287;-58
2023/08/19 13:16:36;;;;;;;497.63;449.47;;;;;;;;;;4936147;28;20280;-57
2023/08/19 13:19:03;;;;;;;578.63;489.80;;;;;;;;;;4928158;28;20035;-58
2023/08/19 13:21:28;;;;;;;1534.50;740.00;;;;;;;;;;4928791;28;20294;-56
2023/08/19 13:23:53;;;;;;;409.30;329.40;;;;;;;;;;4930012;28;20023;-56
2023/08/19 13:26:18;;;;;;;435.97;392.47;;;;;;;;;;4929664;28;20294;-59
2023/08/19 13:28:44;;;;;;;743.43;560.23;;;;;;;;;;4931553;28;20089;-57
2023/08/19 13:31:09;;;;;;;557.67;496.98;;;;;;;;;;4929859;28;21670;-58
2023/08/19 13:33:34;;;;;;;513.00;458.10;;;;;;;;;;4930073;28;20031;-58
2023/08/19 13:35:59;;;;;;;538.23;478.67;;;;;;;;;;4926891;28;20126;-58
2023/08/19 13:38:25;;;;;;;495.50;355.90;;;;;;;;;;4930656;28;20119;-56
2023/08/19 13:40:50;;;;;;;528.37;474.50;;;;;;;;;;4927325;28;20516;-56
2023/08/19 13:43:15;;;;;;;679.43;547.37;;;;;;;;;;4927233;28;20275;-58
2023/08/19 13:45:40;;;;;;;606.30;539.60;;;;;;;;;;4931184;28;20042;-60
2023/08/19 13:48:06;;;;;;;715.30;472.05;;;;;;;;;;4930083;28;20401;-59
2023/08/19 13:50:31;;;;;;;355.83;316.92;;;;;;;;;;4928819;28;20890;-58
2023/08/19 13:52:56;;;;;;;452.77;367.17;;;;;;;;;;4928496;28;20706;-57